createdAt,value
2019-04-28T00:00:16.273Z,1017.4
2019-04-28T00:01:16.213Z,1017.5
2019-04-28T00:02:16.226Z,1017.5
2019-04-28T00:03:16.330Z,1017.4
2019-04-28T00:04:16.279Z,1017.5
2019-04-28T00:05:16.373Z,1017.5
2019-04-28T00:06:16.328Z,1017.5
2019-04-28T00:07:16.310Z,1017.5
2019-04-28T00:08:16.327Z,1017.5
2019-04-28T00:09:16.345Z,1017.5
2019-04-28T00:10:16.382Z,1017.5
2019-04-28T00:11:16.393Z,1017.5
2019-04-28T00:12:16.419Z,1017.5
2019-04-28T00:13:16.431Z,1017.5
2019-04-28T00:14:16.448Z,1017.4
2019-04-28T00:15:16.419Z,1017.5
2019-04-28T00:16:16.445Z,1017.6
2019-04-28T00:17:18.674Z,1017.5
2019-04-28T00:18:16.459Z,1017.5
2019-04-28T00:19:16.493Z,1017.5
2019-04-28T00:20:16.474Z,1017.6
2019-04-28T00:21:16.468Z,1017.5
2019-04-28T00:22:16.482Z,1017.5
2019-04-28T00:23:16.504Z,1017.5
2019-04-28T00:24:16.583Z,1017.5
2019-04-28T00:25:16.503Z,1017.4
2019-04-28T00:26:16.503Z,1017.5
2019-04-28T00:27:16.486Z,1017.5
2019-04-28T00:28:16.512Z,1017.4
2019-04-28T00:29:16.514Z,1017.4
2019-04-28T00:30:16.527Z,1017.4
2019-04-28T00:31:16.584Z,1017.4
2019-04-28T00:32:16.668Z,1017.4
2019-04-28T00:33:16.660Z,1017.4
2019-04-28T00:34:16.746Z,1017.4
2019-04-28T00:35:16.781Z,1017.4
2019-04-28T00:36:16.810Z,1017.4
2019-04-28T00:37:16.837Z,1017.4
2019-04-28T00:38:16.918Z,1017.5
2019-04-28T00:39:16.959Z,1017.5
2019-04-28T00:40:17.012Z,1017.4
2019-04-28T00:41:17.082Z,1017.4
2019-04-28T00:42:17.166Z,1017.4
2019-04-28T00:43:17.206Z,1017.3
2019-04-28T00:44:17.253Z,1017.4
2019-04-28T00:45:17.304Z,1017.3
2019-04-28T00:46:17.338Z,1017.4
2019-04-28T00:47:17.415Z,1017.3
2019-04-28T00:48:17.478Z,1017.4
2019-04-28T00:49:17.492Z,1017.4
2019-04-28T00:50:17.549Z,1017.4
2019-04-28T00:51:17.577Z,1017.4
2019-04-28T00:52:17.602Z,1017.3
2019-04-28T00:53:17.692Z,1017.4
2019-04-28T00:54:17.810Z,1017.3
2019-04-28T00:55:17.766Z,1017.4
2019-04-28T00:56:17.805Z,1017.4
2019-04-28T00:57:17.838Z,1017.4
2019-04-28T00:58:17.858Z,1017.5
2019-04-28T00:59:17.932Z,1017.5
2019-04-28T01:00:18.054Z,1017.5
2019-04-28T01:01:18.013Z,1017.5
2019-04-28T01:02:18.003Z,1017.6
2019-04-28T01:03:18.070Z,1017.5
2019-04-28T01:04:18.122Z,1017.5
2019-04-28T01:05:18.199Z,1017.4
2019-04-28T01:06:18.260Z,1017.4
2019-04-28T01:07:18.280Z,1017.5
2019-04-28T01:08:18.326Z,1017.5
2019-04-28T01:09:18.404Z,1017.4
2019-04-28T01:10:18.456Z,1017.5
2019-04-28T01:11:18.489Z,1017.5
2019-04-28T01:12:18.532Z,1017.5
2019-04-28T01:13:18.590Z,1017.5
2019-04-28T01:14:18.642Z,1017.6
2019-04-28T01:15:20.166Z,1017.5
2019-04-28T01:16:19.388Z,1017.6
2019-04-28T01:17:19.794Z,1017.6
2019-04-28T01:18:20.115Z,1017.6
2019-04-28T01:19:20.202Z,1017.6
2019-04-28T01:20:19.648Z,1017.6
2019-04-28T01:21:20.299Z,1017.7
2019-04-28T01:22:20.124Z,1017.7
2019-04-28T01:23:20.328Z,1017.6
2019-04-28T01:24:20.041Z,1017.6
2019-04-28T01:25:20.272Z,1017.6
2019-04-28T01:26:19.984Z,1017.5
2019-04-28T01:27:20.340Z,1017.6
2019-04-28T01:28:19.450Z,1017.7
2019-04-28T01:29:19.530Z,1017.6
2019-04-28T01:30:20.257Z,1017.6
2019-04-28T01:31:20.976Z,1017.7
2019-04-28T01:32:20.286Z,1017.7
2019-04-28T01:33:20.556Z,1017.7
2019-04-28T01:34:20.269Z,1017.7
2019-04-28T01:35:20.986Z,1017.7
2019-04-28T01:36:20.261Z,1017.8
2019-04-28T01:37:19.681Z,1017.7
2019-04-28T01:38:20.403Z,1017.7
2019-04-28T01:39:20.038Z,1017.7
2019-04-28T01:40:20.476Z,1017.8
2019-04-28T01:41:19.834Z,1017.7
2019-04-28T01:42:20.358Z,1017.7
2019-04-28T01:43:19.695Z,1017.8
2019-04-28T01:44:19.882Z,1017.8
2019-04-28T01:45:20.539Z,1017.8
2019-04-28T01:46:19.903Z,1017.7
2019-04-28T01:47:20.442Z,1017.8
2019-04-28T01:48:19.902Z,1017.9
2019-04-28T01:49:19.750Z,1017.8
2019-04-28T01:50:20.408Z,1017.9
2019-04-28T01:51:20.847Z,1017.9
2019-04-28T01:52:20.261Z,1017.9
2019-04-28T01:53:19.948Z,1017.9
2019-04-28T01:54:20.032Z,1017.9
2019-04-28T01:56:20.415Z,1017.9
2019-04-28T01:57:21.525Z,1017.9
2019-04-28T01:58:20.391Z,1017.9
2019-04-28T01:59:20.109Z,1018
2019-04-28T02:00:24.938Z,1017.9
2019-04-28T02:01:20.424Z,1018
2019-04-28T02:02:20.033Z,1017.9
2019-04-28T02:03:20.516Z,1017.8
2019-04-28T02:04:20.006Z,1018
2019-04-28T02:05:20.021Z,1017.9
2019-04-28T02:06:20.027Z,1017.9
2019-04-28T02:07:20.619Z,1017.9
2019-04-28T02:08:20.321Z,1017.8
2019-04-28T02:09:22.669Z,1017.9
2019-04-28T02:10:21.782Z,1018
2019-04-28T02:11:20.109Z,1017.9
2019-04-28T02:12:20.402Z,1017.9
2019-04-28T02:13:20.123Z,1017.9
2019-04-28T02:14:20.119Z,1018
2019-04-28T02:15:20.307Z,1017.9
2019-04-28T02:16:20.123Z,1017.9
2019-04-28T02:17:20.311Z,1017.9
2019-04-28T02:18:20.149Z,1017.9
2019-04-28T02:19:20.385Z,1017.9
2019-04-28T02:20:20.268Z,1017.8
2019-04-28T02:21:20.166Z,1017.8
2019-04-28T02:22:22.625Z,1017.8
2019-04-28T02:23:20.209Z,1017.8
2019-04-28T02:24:20.259Z,1017.8
2019-04-28T02:25:21.374Z,1017.8
2019-04-28T02:26:20.338Z,1017.8
2019-04-28T02:27:20.466Z,1017.8
2019-04-28T02:28:20.470Z,1017.8
2019-04-28T02:29:20.512Z,1017.8
2019-04-28T02:30:26.502Z,1017.8
2019-04-28T02:31:21.493Z,1017.8
2019-04-28T02:32:24.108Z,1017.8
2019-04-28T02:33:21.192Z,1017.8
2019-04-28T02:34:21.257Z,1017.8
2019-04-28T02:35:21.419Z,1017.8
2019-04-28T02:36:20.892Z,1017.9
2019-04-28T02:37:20.940Z,1017.8
2019-04-28T02:38:21.147Z,1017.8
2019-04-28T02:39:20.993Z,1017.8
2019-04-28T02:40:21.000Z,1017.9
2019-04-28T02:41:21.018Z,1017.9
2019-04-28T02:42:21.127Z,1018
2019-04-28T02:43:21.198Z,1018
2019-04-28T02:44:23.471Z,1017.9
2019-04-28T02:45:21.871Z,1017.9
2019-04-28T02:46:21.266Z,1017.9
2019-04-28T02:47:22.052Z,1017.9
2019-04-28T02:48:21.381Z,1018
2019-04-28T02:49:21.425Z,1018
2019-04-28T02:50:21.446Z,1018.1
2019-04-28T02:51:21.519Z,1018.1
2019-04-28T02:52:22.573Z,1018
2019-04-28T02:53:21.634Z,1018
2019-04-28T02:54:21.717Z,1017.9
2019-04-28T02:55:21.773Z,1017.9
2019-04-28T02:56:21.855Z,1018
2019-04-28T02:57:21.902Z,1018
2019-04-28T02:58:22.506Z,1018
2019-04-28T02:59:21.997Z,1018
2019-04-28T03:00:22.072Z,1018.1
2019-04-28T03:01:26.339Z,1018.1
2019-04-28T03:02:22.140Z,1018.1
2019-04-28T03:03:22.206Z,1018.2
2019-04-28T03:04:22.201Z,1018.1
2019-04-28T03:05:22.217Z,1018.1
2019-04-28T03:06:22.332Z,1018.2
2019-04-28T03:07:22.260Z,1018.2
2019-04-28T03:08:22.337Z,1018.3
2019-04-28T03:09:22.348Z,1018.3
2019-04-28T03:10:22.398Z,1018.3
2019-04-28T03:11:22.441Z,1018.3
2019-04-28T03:12:22.457Z,1018.3
2019-04-28T03:13:22.480Z,1018.4
2019-04-28T03:14:22.501Z,1018.3
2019-04-28T03:15:22.553Z,1018.5
2019-04-28T03:16:23.102Z,1018.5
2019-04-28T03:17:22.588Z,1018.4
2019-04-28T03:18:22.598Z,1018.4
2019-04-28T03:19:22.634Z,1018.5
2019-04-28T03:20:22.715Z,1018.3
2019-04-28T03:21:22.762Z,1018.5
2019-04-28T03:22:22.804Z,1018.3
2019-04-28T03:23:22.815Z,1018.4
2019-04-28T03:24:22.851Z,1018.3
2019-04-28T03:25:22.897Z,1018.5
2019-04-28T03:26:22.957Z,1018.5
2019-04-28T03:27:23.004Z,1018.5
2019-04-28T03:28:23.021Z,1018.5
2019-04-28T03:29:23.027Z,1018.6
2019-04-28T03:30:23.264Z,1018.4
2019-04-28T03:31:50.580Z,1018.5
2019-04-28T03:32:39.114Z,1018.4
2019-04-28T03:33:25.212Z,1018.4
2019-04-28T03:34:23.638Z,1018.4
2019-04-28T03:35:23.351Z,1018.4
2019-04-28T03:36:23.715Z,1018.4
2019-04-28T03:37:24.126Z,1018.3
2019-04-28T03:38:23.250Z,1018.5
2019-04-28T03:39:23.294Z,1018.5
2019-04-28T03:40:23.353Z,1018.4
2019-04-28T03:41:23.476Z,1018.5
2019-04-28T03:42:23.401Z,1018.5
2019-04-28T03:43:23.430Z,1018.5
2019-04-28T03:44:23.447Z,1018.5
2019-04-28T03:45:23.499Z,1018.5
2019-04-28T03:46:23.531Z,1018.4
2019-04-28T03:47:23.518Z,1018.4
2019-04-28T03:48:23.560Z,1018.4
2019-04-28T03:49:23.605Z,1018.5
2019-04-28T03:50:23.602Z,1018.5
2019-04-28T03:51:23.651Z,1018.5
2019-04-28T03:52:23.653Z,1018.6
2019-04-28T03:53:23.706Z,1018.6
2019-04-28T03:54:23.744Z,1018.6
2019-04-28T03:55:23.741Z,1018.6
2019-04-28T03:56:23.760Z,1018.6
2019-04-28T03:57:23.777Z,1018.5
2019-04-28T03:58:24.348Z,1018.7
2019-04-28T03:59:23.832Z,1018.6
2019-04-28T04:00:23.847Z,1018.7
2019-04-28T04:01:23.851Z,1018.7
2019-04-28T04:02:24.030Z,1018.8
2019-04-28T04:03:23.900Z,1018.7
2019-04-28T04:04:23.900Z,1018.7
2019-04-28T04:05:23.949Z,1018.8
2019-04-28T04:06:23.972Z,1018.8
2019-04-28T04:07:23.955Z,1018.9
2019-04-28T04:08:23.991Z,1018.9
2019-04-28T04:09:24.213Z,1018.9
2019-04-28T04:10:24.024Z,1019
2019-04-28T04:11:24.165Z,1018.9
2019-04-28T04:12:24.077Z,1018.9
2019-04-28T04:13:24.115Z,1018.9
2019-04-28T04:14:24.125Z,1018.8
2019-04-28T04:15:24.139Z,1018.9
2019-04-28T04:16:24.160Z,1018.8
2019-04-28T04:17:24.147Z,1018.9
2019-04-28T04:18:24.204Z,1018.9
2019-04-28T04:19:24.199Z,1018.9
2019-04-28T04:20:24.190Z,1018.9
2019-04-28T04:21:24.227Z,1018.9
2019-04-28T04:22:26.684Z,1018.9
2019-04-28T04:23:24.225Z,1019
2019-04-28T04:24:24.225Z,1018.9
2019-04-28T04:25:24.229Z,1018.9
2019-04-28T04:26:24.287Z,1019
2019-04-28T04:27:24.256Z,1018.9
2019-04-28T04:28:24.246Z,1018.9
2019-04-28T04:29:24.250Z,1018.8
2019-04-28T04:30:24.262Z,1018.9
2019-04-28T04:31:24.306Z,1018.9
2019-04-28T04:32:27.076Z,1018.9
2019-04-28T04:33:24.273Z,1018.9
2019-04-28T04:34:24.274Z,1018.8
2019-04-28T04:35:24.289Z,1018.8
2019-04-28T04:36:24.299Z,1018.9
2019-04-28T04:37:24.282Z,1018.8
2019-04-28T04:38:24.342Z,1018.8
2019-04-28T04:39:24.389Z,1018.8
2019-04-28T04:40:24.474Z,1018.9
2019-04-28T04:41:24.533Z,1018.8
2019-04-28T04:42:24.625Z,1018.8
2019-04-28T04:43:24.631Z,1018.8
2019-04-28T04:44:24.639Z,1018.9
2019-04-28T04:45:24.709Z,1018.8
2019-04-28T04:46:24.795Z,1018.8
2019-04-28T04:47:24.803Z,1018.9
2019-04-28T04:48:24.843Z,1018.8
2019-04-28T04:49:24.931Z,1018.7
2019-04-28T04:50:24.935Z,1018.7
2019-04-28T04:51:25.005Z,1018.8
2019-04-28T04:52:25.014Z,1018.7
2019-04-28T04:53:25.065Z,1018.7
2019-04-28T04:54:26.167Z,1018.7
2019-04-28T04:55:25.234Z,1018.8
2019-04-28T04:56:25.247Z,1018.7
2019-04-28T04:57:25.305Z,1018.7
2019-04-28T04:58:25.352Z,1018.8
2019-04-28T04:59:25.403Z,1018.9
2019-04-28T05:00:25.534Z,1018.8
2019-04-28T05:01:25.520Z,1018.9
2019-04-28T05:02:29.203Z,1018.9
2019-04-28T05:03:25.617Z,1018.9
2019-04-28T05:04:25.667Z,1019
2019-04-28T05:05:25.692Z,1019
2019-04-28T05:06:25.734Z,1019
2019-04-28T05:07:25.770Z,1019
2019-04-28T05:08:25.799Z,1019
2019-04-28T05:09:25.830Z,1019
2019-04-28T05:10:25.835Z,1019
2019-04-28T05:11:25.885Z,1019.1
2019-04-28T05:12:25.884Z,1019.1
2019-04-28T05:13:25.897Z,1019.1
2019-04-28T05:14:25.941Z,1019.2
2019-04-28T05:15:25.969Z,1019.2
2019-04-28T05:16:25.990Z,1019.2
2019-04-28T05:17:26.012Z,1019.2
2019-04-28T05:18:26.064Z,1019.2
2019-04-28T05:19:26.083Z,1019.3
2019-04-28T05:20:26.131Z,1019.3
2019-04-28T05:21:26.185Z,1019.4
2019-04-28T05:22:26.214Z,1019.3
2019-04-28T05:23:26.316Z,1019.3
2019-04-28T05:24:26.332Z,1019.2
2019-04-28T05:25:29.174Z,1019.3
2019-04-28T05:26:26.382Z,1019.3
2019-04-28T05:27:26.400Z,1019.2
2019-04-28T05:28:26.418Z,1019.3
2019-04-28T05:29:27.806Z,1019.4
2019-04-28T05:30:26.490Z,1019.3
2019-04-28T05:31:26.486Z,1019.4
2019-04-28T05:32:39.170Z,1019.3
2019-04-28T05:33:30.376Z,1019.3
2019-04-28T05:34:26.539Z,1019.3
2019-04-28T05:35:26.592Z,1019.4
2019-04-28T05:36:26.647Z,1019.3
2019-04-28T05:37:26.687Z,1019.4
2019-04-28T05:38:26.704Z,1019.3
2019-04-28T05:39:26.745Z,1019.4
2019-04-28T05:40:26.751Z,1019.4
2019-04-28T05:41:26.793Z,1019.4
2019-04-28T05:42:26.836Z,1019.4
2019-04-28T05:43:26.854Z,1019.4
2019-04-28T05:44:27.070Z,1019.4
2019-04-28T05:45:26.908Z,1019.4
2019-04-28T05:46:26.914Z,1019.4
2019-04-28T05:47:26.926Z,1019.4
2019-04-28T05:48:26.949Z,1019.5
2019-04-28T05:49:26.943Z,1019.4
2019-04-28T05:50:27.010Z,1019.4
2019-04-28T05:51:26.998Z,1019.4
2019-04-28T05:52:27.022Z,1019.5
2019-04-28T05:53:27.037Z,1019.5
2019-04-28T05:54:27.082Z,1019.4
2019-04-28T05:55:27.075Z,1019.5
2019-04-28T05:56:27.102Z,1019.5
2019-04-28T05:57:27.149Z,1019.4
2019-04-28T05:58:27.145Z,1019.5
2019-04-28T05:59:27.168Z,1019.5
2019-04-28T06:00:27.182Z,1019.5
2019-04-28T06:01:27.197Z,1019.5
2019-04-28T06:02:27.222Z,1019.5
2019-04-28T06:03:27.236Z,1019.5
2019-04-28T06:04:27.257Z,1019.5
2019-04-28T06:05:27.246Z,1019.5
2019-04-28T06:06:27.275Z,1019.5
2019-04-28T06:07:27.305Z,1019.5
2019-04-28T06:08:27.299Z,1019.5
2019-04-28T06:09:27.321Z,1019.4
2019-04-28T06:10:27.309Z,1019.3
2019-04-28T06:11:27.330Z,1019.5
2019-04-28T06:12:27.332Z,1019.5
2019-04-28T06:13:27.330Z,1019.4
2019-04-28T06:14:27.334Z,1019.5
2019-04-28T06:15:27.775Z,1019.4
2019-04-28T06:16:27.346Z,1019.4
2019-04-28T06:17:29.296Z,1019.5
2019-04-28T06:18:27.327Z,1019.5
2019-04-28T06:19:27.403Z,1019.5
2019-04-28T06:20:27.386Z,1019.5
2019-04-28T06:21:27.470Z,1019.5
2019-04-28T06:22:27.507Z,1019.5
2019-04-28T06:23:27.554Z,1019.5
2019-04-28T06:24:27.572Z,1019.6
2019-04-28T06:25:27.574Z,1019.5
2019-04-28T06:26:27.657Z,1019.5
2019-04-28T06:27:27.694Z,1019.5
2019-04-28T06:28:27.762Z,1019.5
2019-04-28T06:29:27.789Z,1019.5
2019-04-28T06:30:27.862Z,1019.5
2019-04-28T06:31:27.906Z,1019.6
2019-04-28T06:32:27.933Z,1019.6
2019-04-28T06:33:27.944Z,1019.6
2019-04-28T06:34:27.961Z,1019.6
2019-04-28T06:35:28.027Z,1019.5
2019-04-28T06:36:28.089Z,1019.7
2019-04-28T06:37:28.125Z,1019.6
2019-04-28T06:38:28.184Z,1019.7
2019-04-28T06:39:28.242Z,1019.7
2019-04-28T06:40:30.853Z,1019.6
2019-04-28T06:41:28.319Z,1019.7
2019-04-28T06:42:28.381Z,1019.7
2019-04-28T06:43:28.435Z,1019.7
2019-04-28T06:44:28.485Z,1019.7
2019-04-28T06:45:28.534Z,1019.7
2019-04-28T06:46:28.592Z,1019.7
2019-04-28T06:47:28.608Z,1019.8
2019-04-28T06:48:28.698Z,1019.7
2019-04-28T06:49:28.767Z,1019.7
2019-04-28T06:50:28.789Z,1019.8
2019-04-28T06:51:28.824Z,1019.8
2019-04-28T06:52:28.915Z,1019.8
2019-04-28T06:53:28.897Z,1019.9
2019-04-28T06:54:28.930Z,1019.8
2019-04-28T06:55:28.976Z,1019.7
2019-04-28T06:56:29.007Z,1019.7
2019-04-28T06:57:29.060Z,1019.7
2019-04-28T06:58:29.084Z,1019.7
2019-04-28T06:59:29.105Z,1019.7
2019-04-28T07:00:29.122Z,1019.7
2019-04-28T07:01:29.147Z,1019.7
2019-04-28T07:02:29.201Z,1019.7
2019-04-28T07:03:29.259Z,1019.7
2019-04-28T07:04:29.274Z,1019.8
2019-04-28T07:05:29.349Z,1019.8
2019-04-28T07:06:29.388Z,1019.8
2019-04-28T07:07:29.495Z,1019.8
2019-04-28T07:08:29.479Z,1019.9
2019-04-28T07:09:29.549Z,1019.8
2019-04-28T07:10:29.515Z,1019.8
2019-04-28T07:11:29.584Z,1019.8
2019-04-28T07:12:29.603Z,1019.8
2019-04-28T07:13:29.654Z,1019.9
2019-04-28T07:14:29.675Z,1019.8
2019-04-28T07:15:29.689Z,1019.8
2019-04-28T07:16:29.739Z,1019.7
2019-04-28T07:17:29.740Z,1019.6
2019-04-28T07:18:29.776Z,1019.7
2019-04-28T07:19:29.776Z,1019.8
2019-04-28T07:20:29.805Z,1019.7
2019-04-28T07:21:29.827Z,1019.7
2019-04-28T07:22:29.873Z,1019.7
2019-04-28T07:23:29.890Z,1019.8
2019-04-28T07:24:29.910Z,1019.8
2019-04-28T07:25:29.923Z,1019.8
2019-04-28T07:26:29.982Z,1019.8
2019-04-28T07:27:29.977Z,1019.9
2019-04-28T07:28:30.002Z,1019.9
2019-04-28T07:29:30.027Z,1019.8
2019-04-28T07:30:30.076Z,1019.8
2019-04-28T07:31:30.080Z,1019.7
2019-04-28T07:32:30.120Z,1019.9
2019-04-28T07:33:35.966Z,1019.8
2019-04-28T07:34:30.160Z,1019.8
2019-04-28T07:35:30.162Z,1019.8
2019-04-28T07:36:30.171Z,1019.9
2019-04-28T07:37:30.248Z,1019.9
2019-04-28T07:38:30.234Z,1019.9
2019-04-28T07:39:30.268Z,1020
2019-04-28T07:40:30.279Z,1019.9
2019-04-28T07:41:30.294Z,1020
2019-04-28T07:42:30.316Z,1020
2019-04-28T07:43:30.355Z,1020.1
2019-04-28T07:44:30.366Z,1020.2
2019-04-28T07:45:30.373Z,1020.1
2019-04-28T07:46:30.377Z,1020.2
2019-04-28T07:47:30.415Z,1020.1
2019-04-28T07:48:30.414Z,1020.2
2019-04-28T07:49:30.463Z,1020.1
2019-04-28T07:50:30.430Z,1020.1
2019-04-28T07:51:30.464Z,1020.1
2019-04-28T07:52:30.537Z,1020.1
2019-04-28T07:53:30.474Z,1020.2
2019-04-28T07:54:30.467Z,1020.1
2019-04-28T07:55:30.504Z,1020.2
2019-04-28T07:56:33.274Z,1020.2
2019-04-28T07:57:30.526Z,1020.1
2019-04-28T07:58:30.535Z,1020.2
2019-04-28T07:59:30.535Z,1020.2
2019-04-28T08:00:30.522Z,1020.2
2019-04-28T08:01:30.495Z,1020.2
2019-04-28T08:02:30.578Z,1020.2
2019-04-28T08:03:30.614Z,1020.2
2019-04-28T08:04:30.679Z,1020.3
2019-04-28T08:05:30.758Z,1020.2
2019-04-28T08:06:30.811Z,1020.3
2019-04-28T08:07:33.070Z,1020.2
2019-04-28T08:08:30.870Z,1020.3
2019-04-28T08:09:31.025Z,1020.3
2019-04-28T08:10:31.020Z,1020.4
2019-04-28T08:11:31.059Z,1020.3
2019-04-28T08:12:33.340Z,1020.3
2019-04-28T08:13:31.182Z,1020.4
2019-04-28T08:14:33.733Z,1020.3
2019-04-28T08:15:31.322Z,1020.3
2019-04-28T08:16:31.306Z,1020.3
2019-04-28T08:17:31.305Z,1020.4
2019-04-28T08:18:31.676Z,1020.4
2019-04-28T08:19:31.432Z,1020.4
2019-04-28T08:20:31.443Z,1020.4
2019-04-28T08:21:31.486Z,1020.5
2019-04-28T08:22:31.579Z,1020.4
2019-04-28T08:23:31.615Z,1020.5
2019-04-28T08:24:31.632Z,1020.4
2019-04-28T08:25:31.626Z,1020.4
2019-04-28T08:26:31.705Z,1020.4
2019-04-28T08:27:31.819Z,1020.4
2019-04-28T08:28:31.855Z,1020.4
2019-04-28T08:29:31.890Z,1020.4
2019-04-28T08:30:31.885Z,1020.4
2019-04-28T08:31:31.921Z,1020.5
2019-04-28T08:32:31.967Z,1020.4
2019-04-28T08:33:33.272Z,1020.5
2019-04-28T08:34:32.009Z,1020.4
2019-04-28T08:35:32.017Z,1020.4
2019-04-28T08:36:32.104Z,1020.5
2019-04-28T08:37:32.131Z,1020.5
2019-04-28T08:38:32.138Z,1020.6
2019-04-28T08:39:32.266Z,1020.5
2019-04-28T08:40:32.284Z,1020.5
2019-04-28T08:41:32.315Z,1020.5
2019-04-28T08:43:28.880Z,1020.6
2019-04-28T08:44:28.514Z,1020.6
2019-04-28T08:45:28.598Z,1020.6
2019-04-28T08:46:28.560Z,1020.5
2019-04-28T08:47:28.576Z,1020.6
2019-04-28T08:48:28.534Z,1020.5
2019-04-28T08:49:28.556Z,1020.6
2019-04-28T08:50:28.525Z,1020.6
2019-04-28T08:51:28.526Z,1020.6
2019-04-28T08:52:28.597Z,1020.6
2019-04-28T08:53:28.641Z,1020.6
2019-04-28T08:54:28.700Z,1020.7
2019-04-28T08:55:28.764Z,1020.7
2019-04-28T08:56:28.818Z,1020.7
2019-04-28T08:57:28.830Z,1020.6
2019-04-28T08:58:28.962Z,1020.7
2019-04-28T08:59:28.932Z,1020.7
2019-04-28T09:00:29.003Z,1020.6
2019-04-28T09:01:29.055Z,1020.7
2019-04-28T09:02:29.089Z,1020.6
2019-04-28T09:03:31.611Z,1020.7
2019-04-28T09:04:29.186Z,1020.6
2019-04-28T09:05:29.308Z,1020.7
2019-04-28T09:06:29.273Z,1020.6
2019-04-28T09:07:29.312Z,1020.6
2019-04-28T09:08:29.338Z,1020.5
2019-04-28T09:09:29.400Z,1020.6
2019-04-28T09:10:29.422Z,1020.5
2019-04-28T09:11:29.501Z,1020.6
2019-04-28T09:12:29.513Z,1020.6
2019-04-28T09:13:29.560Z,1020.7
2019-04-28T09:14:29.629Z,1020.6
2019-04-28T09:15:29.676Z,1020.6
2019-04-28T09:16:29.731Z,1020.7
2019-04-28T09:17:29.775Z,1020.7
2019-04-28T09:19:29.848Z,1020.5
2019-04-28T09:20:29.877Z,1020.5
2019-04-28T09:21:29.951Z,1020.5
2019-04-28T09:22:29.931Z,1020.5
2019-04-28T09:23:29.996Z,1020.5
2019-04-28T09:24:30.008Z,1020.5
2019-04-28T09:25:29.997Z,1020.5
2019-04-28T09:26:30.028Z,1020.5
2019-04-28T09:27:30.058Z,1020.5
2019-04-28T09:28:30.121Z,1020.4
2019-04-28T09:29:30.173Z,1020.4
2019-04-28T09:30:30.222Z,1020.3
2019-04-28T09:31:30.288Z,1020.4
2019-04-28T09:32:30.308Z,1020.4
2019-04-28T09:33:30.313Z,1020.3
2019-04-28T09:34:30.365Z,1020.3
2019-04-28T09:35:30.374Z,1020.3
2019-04-28T09:36:33.049Z,1020.4
2019-04-28T09:37:30.430Z,1020.4
2019-04-28T09:38:30.414Z,1020.3
2019-04-28T09:39:30.486Z,1020.3
2019-04-28T09:40:30.475Z,1020.3
2019-04-28T09:41:30.464Z,1020.2
2019-04-28T09:42:30.511Z,1020.3
2019-04-28T09:43:30.584Z,1020.3
2019-04-28T09:44:30.613Z,1020.3
2019-04-28T09:45:30.601Z,1020.3
2019-04-28T09:46:30.673Z,1020.3
2019-04-28T09:47:30.704Z,1020.4
2019-04-28T09:48:30.710Z,1020.4
2019-04-28T09:49:30.708Z,1020.3
2019-04-28T09:50:30.761Z,1020.3
2019-04-28T09:51:30.793Z,1020.3
2019-04-28T09:52:30.809Z,1020.3
2019-04-28T09:53:30.840Z,1020.2
2019-04-28T09:54:30.989Z,1020.2
2019-04-28T09:55:30.915Z,1020.3
2019-04-28T09:56:30.913Z,1020.2
2019-04-28T09:57:30.927Z,1020.2
2019-04-28T09:58:30.978Z,1020.4
2019-04-28T09:59:31.027Z,1020.3
2019-04-28T10:00:31.017Z,1020.4
2019-04-28T10:01:31.019Z,1020.3
2019-04-28T10:02:31.076Z,1020.2
2019-04-28T10:03:31.155Z,1020.2
2019-04-28T10:04:40.873Z,1020.3
2019-04-28T10:05:31.139Z,1020.3
2019-04-28T10:06:31.162Z,1020.3
2019-04-28T10:07:31.184Z,1020.2
2019-04-28T10:08:31.283Z,1020.3
2019-04-28T10:09:31.213Z,1020.3
2019-04-28T10:10:31.256Z,1020.3
2019-04-28T10:11:31.273Z,1020.4
2019-04-28T10:12:31.250Z,1020.2
2019-04-28T10:13:31.280Z,1020.3
2019-04-28T10:14:31.302Z,1020.4
2019-04-28T10:15:31.322Z,1020.3
2019-04-28T10:16:31.388Z,1020.3
2019-04-28T10:17:31.335Z,1020.4
2019-04-28T10:18:31.354Z,1020.4
2019-04-28T10:19:32.628Z,1020.3
2019-04-28T10:20:31.373Z,1020.4
2019-04-28T10:21:31.383Z,1020.4
2019-04-28T10:22:31.372Z,1020.4
2019-04-28T10:23:31.434Z,1020.5
2019-04-28T10:24:31.401Z,1020.4
2019-04-28T10:25:31.425Z,1020.3
2019-04-28T10:26:31.415Z,1020.3
2019-04-28T10:27:31.434Z,1020.3
2019-04-28T10:28:31.449Z,1020.3
2019-04-28T10:29:32.943Z,1020.3
2019-04-28T10:30:31.409Z,1020.4
2019-04-28T10:31:31.462Z,1020.4
2019-04-28T10:32:31.507Z,1020.5
2019-04-28T10:33:31.548Z,1020.4
2019-04-28T10:34:31.646Z,1020.4
2019-04-28T10:35:31.697Z,1020.5
2019-04-28T10:36:31.769Z,1020.4
2019-04-28T10:37:31.789Z,1020.5
2019-04-28T10:38:31.794Z,1020.5
2019-04-28T10:39:31.900Z,1020.5
2019-04-28T10:40:31.921Z,1020.4
2019-04-28T10:41:31.986Z,1020.5
2019-04-28T10:42:32.058Z,1020.4
2019-04-28T10:43:32.047Z,1020.4
2019-04-28T10:44:32.119Z,1020.5
2019-04-28T10:45:32.177Z,1020.5
2019-04-28T10:46:32.216Z,1020.4
2019-04-28T10:47:32.240Z,1020.4
2019-04-28T10:48:32.272Z,1020.4
2019-04-28T10:49:32.314Z,1020.5
2019-04-28T10:50:32.357Z,1020.5
2019-04-28T10:51:32.393Z,1020.4
2019-04-28T10:52:32.381Z,1020.5
2019-04-28T10:53:32.445Z,1020.4
2019-04-28T10:54:32.498Z,1020.5
2019-04-28T10:55:32.560Z,1020.5
2019-04-28T10:56:32.577Z,1020.5
2019-04-28T10:57:32.596Z,1020.5
2019-04-28T10:58:32.710Z,1020.5
2019-04-28T10:59:32.737Z,1020.5
2019-04-28T11:00:32.783Z,1020.6
2019-04-28T11:01:32.896Z,1020.5
2019-04-28T11:02:32.898Z,1020.5
2019-04-28T11:03:32.927Z,1020.5
2019-04-28T11:04:32.990Z,1020.5
2019-04-28T11:05:32.993Z,1020.5
2019-04-28T11:06:33.051Z,1020.5
2019-04-28T11:07:33.112Z,1020.6
2019-04-28T11:08:33.139Z,1020.5
2019-04-28T11:09:33.150Z,1020.5
2019-04-28T11:10:33.214Z,1020.5
2019-04-28T11:11:33.240Z,1020.5
2019-04-28T11:12:33.289Z,1020.6
2019-04-28T11:13:33.317Z,1020.5
2019-04-28T11:14:33.395Z,1020.5
2019-04-28T11:15:35.958Z,1020.5
2019-04-28T11:16:33.509Z,1020.5
2019-04-28T11:17:33.518Z,1020.5
2019-04-28T11:18:33.582Z,1020.6
2019-04-28T11:19:33.621Z,1020.5
2019-04-28T11:20:33.640Z,1020.6
2019-04-28T11:21:33.684Z,1020.5
2019-04-28T11:22:33.719Z,1020.6
2019-04-28T11:23:33.764Z,1020.6
2019-04-28T11:24:33.841Z,1020.6
2019-04-28T11:25:33.853Z,1020.6
2019-04-28T11:26:33.890Z,1020.6
2019-04-28T11:27:33.915Z,1020.6
2019-04-28T11:28:33.936Z,1020.6
2019-04-28T11:29:34.030Z,1020.7
2019-04-28T11:30:34.009Z,1020.6
2019-04-28T11:31:34.126Z,1020.6
2019-04-28T11:32:34.068Z,1020.6
2019-04-28T11:33:34.189Z,1020.7
2019-04-28T11:34:34.211Z,1020.6
2019-04-28T11:35:34.180Z,1020.8
2019-04-28T11:36:34.209Z,1020.6
2019-04-28T11:37:34.245Z,1020.7
2019-04-28T11:38:34.281Z,1020.6
2019-04-28T11:39:34.301Z,1020.6
2019-04-28T11:40:34.326Z,1020.7
2019-04-28T11:41:34.447Z,1020.5
2019-04-28T11:42:34.350Z,1020.6
2019-04-28T11:43:34.373Z,1020.5
2019-04-28T11:44:34.408Z,1020.6
2019-04-28T11:45:34.455Z,1020.6
2019-04-28T11:46:34.462Z,1020.6
2019-04-28T11:47:34.514Z,1020.6
2019-04-28T11:48:34.501Z,1020.7
2019-04-28T11:49:34.606Z,1020.6
2019-04-28T11:50:34.747Z,1020.5
2019-04-28T11:51:34.688Z,1020.7
2019-04-28T11:52:34.575Z,1020.7
2019-04-28T11:53:34.601Z,1020.8
2019-04-28T11:54:34.747Z,1020.7
2019-04-28T11:55:37.103Z,1020.7
2019-04-28T11:56:41.067Z,1020.8
2019-04-28T11:57:34.630Z,1020.7
2019-04-28T11:58:34.649Z,1020.7
2019-04-28T11:59:34.889Z,1020.8
2019-04-28T12:00:34.664Z,1020.8
2019-04-28T12:01:34.700Z,1020.8
2019-04-28T12:02:34.673Z,1020.8
2019-04-28T12:03:34.675Z,1020.8
2019-04-28T12:04:36.914Z,1020.8
2019-04-28T12:05:34.990Z,1020.8
2019-04-28T12:06:34.766Z,1020.8
2019-04-28T12:07:34.709Z,1020.8
2019-04-28T12:08:34.788Z,1020.8
2019-04-28T12:09:34.977Z,1020.8
2019-04-28T12:10:35.075Z,1020.8
2019-04-28T12:11:34.993Z,1020.8
2019-04-28T12:12:35.050Z,1020.8
2019-04-28T12:13:35.032Z,1020.9
2019-04-28T12:14:35.057Z,1020.8
2019-04-28T12:15:35.149Z,1020.8
2019-04-28T12:16:35.210Z,1020.9
2019-04-28T12:17:35.268Z,1021
2019-04-28T12:18:35.269Z,1020.9
2019-04-28T12:19:35.343Z,1020.9
2019-04-28T12:20:35.371Z,1020.9
2019-04-28T12:21:35.429Z,1021
2019-04-28T12:22:35.444Z,1021
2019-04-28T12:23:35.471Z,1021
2019-04-28T12:24:35.526Z,1021.1
2019-04-28T12:25:35.643Z,1020.9
2019-04-28T12:26:42.938Z,1020.9
2019-04-28T12:27:35.643Z,1021
2019-04-28T12:28:35.677Z,1021
2019-04-28T12:29:35.953Z,1021
2019-04-28T12:30:35.787Z,1020.9
2019-04-28T12:31:35.800Z,1020.8
2019-04-28T12:32:35.865Z,1020.8
2019-04-28T12:33:35.922Z,1020.9